Bigler, PA (16825)

6:27 PM EDT on August 04, 2015 (GMT -0400)
Woodland | | Change Station
CLOSE
Current Station
Personal Weather Station
Location: Woodland, PA
Elevation: 1765 ft
Nearby Weather Stations

Elev 1765 ft 41.01 °N, 78.35 °W | Updated 13 minutes ago

Partly Cloudy
Partly Cloudy
79.5 °F
Feels Like 79 °F
N
3.7
Wind Variable Wind from WSW

Today
High -- | Low -- °F
--% Chance of Precip.
Yesterday
High -- | Low -- °F
Precip. -- in
6:11 AM 8:26 PM
Waning Gibbous, 74% visible
Pressure 29.93 in
Visibility 10.0 miles
Clouds Few 6500 ft
Heat Index 79 °F
Dew Point 52 °F
Humidity 38%
Rainfall 0.00 in
Snow Depth Not available.
UV 2 out of 12
Pollen 6.40 out of 12
Air Quality Not available.
Flu Activity Not available.
METAR KFIG 042154Z AUTO 26008KT 230V300 10SM FEW065 26/12 A2995 RMK AO2 SLP133 T02610117

More Conditions Fewer Conditions

Pressure 29.93 in
Visibility 10.0 miles
Clouds Few 6500 ft
Heat Index 79 °F
Dew Point 52 °F
Humidity 38%
Rainfall 0.00 in
Snow Depth Not available.
UV 2 out of 12
Pollen 6.40 out of 12
Air Quality Not available.
Flu Activity Not available.
METAR KFIG 042154Z AUTO 26008KT 230V300 10SM FEW065 26/12 A2995 RMK AO2 SLP133 T02610117

More Conditions Fewer Conditions

10-Day Weather Forecast

×

Almanac

Astronomy

Aug. 04, 2015 Rise Set
Actual Time
Civil Twilight
Nautical Twilight
Astronomical Twilight
Moon
Length of Visible Light
Length of Day
Tomorrow will be .
, % of the Moon is Illuminated

Today's Extremes

State Highs State Lows

Community

WunderPhotos

Upload Photos

1,844,007 photos uploaded!

WunderBlogs® & News

Nearby

Air Quality

  Air Quality AQ Index Pollutant
Not available.

Snow Depth

Station Depth Elevation

Earthquake Activity

City Distance Mag. Time & Date
Minimum magnitude displayed is 2.5.

Coastal Water Temperatures

Place Temperature

Stations

Nearby Weather Stations

Station Location Temp. Windchill Dew Point Humidity Wind Precip. Elev Updated Type